sensor_id;sensor_type;location;lat;lon;timestamp;P1;durP1;ratioP1;P2;durP2;ratioP2
8104;SDS011;4095;48.942;9.104;2023-04-06T00:01:25;13.37;;;11.07;;
8104;SDS011;4095;48.942;9.104;2023-04-06T00:03:51;15.13;;;11.50;;
8104;SDS011;4095;48.942;9.104;2023-04-06T00:06:16;14.33;;;10.93;;
8104;SDS011;4095;48.942;9.104;2023-04-06T00:08:42;13.93;;;11.00;;
8104;SDS011;4095;48.942;9.104;2023-04-06T00:11:08;14.13;;;11.23;;
8104;SDS011;4095;48.942;9.104;2023-04-06T00:13:33;14.30;;;11.20;;
8104;SDS011;4095;48.942;9.104;2023-04-06T00:15:59;12.97;;;10.90;;
8104;SDS011;4095;48.942;9.104;2023-04-06T00:18:25;14.77;;;11.00;;
8104;SDS011;4095;48.942;9.104;2023-04-06T00:20:51;15.17;;;11.33;;
8104;SDS011;4095;48.942;9.104;2023-04-06T00:23:18;17.37;;;11.43;;
8104;SDS011;4095;48.942;9.104;2023-04-06T00:25:43;14.33;;;11.17;;
8104;SDS011;4095;48.942;9.104;2023-04-06T00:28:09;14.43;;;11.60;;
8104;SDS011;4095;48.942;9.104;2023-04-06T00:30:34;14.93;;;11.70;;
8104;SDS011;4095;48.942;9.104;2023-04-06T00:33:00;13.60;;;11.70;;
8104;SDS011;4095;48.942;9.104;2023-04-06T00:35:26;14.20;;;12.23;;
8104;SDS011;4095;48.942;9.104;2023-04-06T00:37:51;17.50;;;12.13;;
8104;SDS011;4095;48.942;9.104;2023-04-06T00:40:17;14.07;;;12.43;;
8104;SDS011;4095;48.942;9.104;2023-04-06T00:42:43;15.03;;;11.73;;
8104;SDS011;4095;48.942;9.104;2023-04-06T00:45:09;15.30;;;12.03;;
8104;SDS011;4095;48.942;9.104;2023-04-06T00:47:35;14.80;;;12.13;;
8104;SDS011;4095;48.942;9.104;2023-04-06T00:50:01;13.57;;;11.43;;
8104;SDS011;4095;48.942;9.104;2023-04-06T00:52:26;14.63;;;11.57;;
8104;SDS011;4095;48.942;9.104;2023-04-06T00:54:52;15.30;;;12.20;;
8104;SDS011;4095;48.942;9.104;2023-04-06T00:57:18;16.40;;;11.93;;
8104;SDS011;4095;48.942;9.104;2023-04-06T00:59:45;12.83;;;11.53;;
8104;SDS011;4095;48.942;9.104;2023-04-06T01:02:11;15.97;;;12.57;;
8104;SDS011;4095;48.942;9.104;2023-04-06T01:04:36;15.43;;;11.93;;
8104;SDS011;4095;48.942;9.104;2023-04-06T01:07:02;16.03;;;12.53;;
8104;SDS011;4095;48.942;9.104;2023-04-06T01:09:28;15.97;;;11.30;;
8104;SDS011;4095;48.942;9.104;2023-04-06T01:11:57;13.73;;;11.63;;
8104;SDS011;4095;48.942;9.104;2023-04-06T01:14:23;15.77;;;11.93;;
8104;SDS011;4095;48.942;9.104;2023-04-06T01:16:50;15.30;;;12.27;;
8104;SDS011;4095;48.942;9.104;2023-04-06T01:19:16;13.47;;;11.73;;
8104;SDS011;4095;48.942;9.104;2023-04-06T01:21:42;14.30;;;11.97;;
8104;SDS011;4095;48.942;9.104;2023-04-06T01:24:08;13.37;;;11.00;;
8104;SDS011;4095;48.942;9.104;2023-04-06T01:26:34;16.17;;;12.10;;
8104;SDS011;4095;48.942;9.104;2023-04-06T01:29:00;17.30;;;11.47;;
8104;SDS011;4095;48.942;9.104;2023-04-06T01:31:27;15.40;;;12.10;;
8104;SDS011;4095;48.942;9.104;2023-04-06T01:33:53;14.37;;;12.27;;
8104;SDS011;4095;48.942;9.104;2023-04-06T01:36:19;16.67;;;11.83;;
8104;SDS011;4095;48.942;9.104;2023-04-06T01:38:45;15.70;;;12.43;;
8104;SDS011;4095;48.942;9.104;2023-04-06T01:41:11;14.63;;;11.70;;
8104;SDS011;4095;48.942;9.104;2023-04-06T01:43:37;15.50;;;12.40;;
8104;SDS011;4095;48.942;9.104;2023-04-06T01:46:02;13.33;;;11.50;;
8104;SDS011;4095;48.942;9.104;2023-04-06T01:48:28;16.17;;;13.13;;
8104;SDS011;4095;48.942;9.104;2023-04-06T01:50:54;19.10;;;13.37;;
8104;SDS011;4095;48.942;9.104;2023-04-06T01:53:20;14.17;;;11.80;;
8104;SDS011;4095;48.942;9.104;2023-04-06T01:55:46;19.50;;;13.00;;
8104;SDS011;4095;48.942;9.104;2023-04-06T01:58:12;17.17;;;12.80;;
8104;SDS011;4095;48.942;9.104;2023-04-06T02:00:38;15.40;;;12.03;;
8104;SDS011;4095;48.942;9.104;2023-04-06T02:03:03;15.93;;;12.90;;
8104;SDS011;4095;48.942;9.104;2023-04-06T02:05:29;16.80;;;12.13;;
8104;SDS011;4095;48.942;9.104;2023-04-06T02:07:56;17.03;;;12.67;;
8104;SDS011;4095;48.942;9.104;2023-04-06T02:10:22;16.33;;;12.90;;
8104;SDS011;4095;48.942;9.104;2023-04-06T02:12:48;14.57;;;11.93;;
8104;SDS011;4095;48.942;9.104;2023-04-06T02:15:14;16.47;;;11.93;;
8104;SDS011;4095;48.942;9.104;2023-04-06T02:17:40;13.63;;;11.83;;
8104;SDS011;4095;48.942;9.104;2023-04-06T02:20:07;17.27;;;12.37;;
8104;SDS011;4095;48.942;9.104;2023-04-06T02:22:33;14.23;;;11.90;;
8104;SDS011;4095;48.942;9.104;2023-04-06T02:24:59;16.30;;;11.93;;
8104;SDS011;4095;48.942;9.104;2023-04-06T02:27:25;14.50;;;11.80;;
8104;SDS011;4095;48.942;9.104;2023-04-06T02:29:50;15.10;;;13.03;;
8104;SDS011;4095;48.942;9.104;2023-04-06T02:32:16;15.80;;;12.97;;
8104;SDS011;4095;48.942;9.104;2023-04-06T02:34:42;17.07;;;13.57;;
8104;SDS011;4095;48.942;9.104;2023-04-06T02:37:07;19.63;;;14.43;;
8104;SDS011;4095;48.942;9.104;2023-04-06T02:39:33;19.20;;;13.47;;
8104;SDS011;4095;48.942;9.104;2023-04-06T02:41:58;16.17;;;13.00;;
8104;SDS011;4095;48.942;9.104;2023-04-06T02:44:24;17.07;;;13.37;;
8104;SDS011;4095;48.942;9.104;2023-04-06T02:46:50;16.90;;;12.90;;
8104;SDS011;4095;48.942;9.104;2023-04-06T02:49:15;18.93;;;13.57;;
8104;SDS011;4095;48.942;9.104;2023-04-06T02:51:41;18.10;;;12.50;;
8104;SDS011;4095;48.942;9.104;2023-04-06T02:54:07;13.57;;;12.13;;
8104;SDS011;4095;48.942;9.104;2023-04-06T02:56:32;13.50;;;11.63;;
8104;SDS011;4095;48.942;9.104;2023-04-06T02:58:58;16.73;;;11.83;;
8104;SDS011;4095;48.942;9.104;2023-04-06T03:01:25;16.63;;;11.33;;
8104;SDS011;4095;48.942;9.104;2023-04-06T03:03:51;15.97;;;11.63;;
8104;SDS011;4095;48.942;9.104;2023-04-06T03:06:17;15.13;;;11.53;;
8104;SDS011;4095;48.942;9.104;2023-04-06T03:08:42;17.13;;;11.53;;
8104;SDS011;4095;48.942;9.104;2023-04-06T03:11:08;15.47;;;11.53;;
8104;SDS011;4095;48.942;9.104;2023-04-06T03:13:33;14.37;;;11.03;;
8104;SDS011;4095;48.942;9.104;2023-04-06T03:15:59;15.77;;;12.40;;
8104;SDS011;4095;48.942;9.104;2023-04-06T03:18:25;16.50;;;12.90;;
8104;SDS011;4095;48.942;9.104;2023-04-06T03:20:51;15.23;;;12.17;;
8104;SDS011;4095;48.942;9.104;2023-04-06T03:23:18;14.43;;;12.07;;
8104;SDS011;4095;48.942;9.104;2023-04-06T03:25:45;14.70;;;11.83;;
8104;SDS011;4095;48.942;9.104;2023-04-06T03:28:11;14.63;;;11.87;;
8104;SDS011;4095;48.942;9.104;2023-04-06T03:30:37;16.47;;;13.00;;
8104;SDS011;4095;48.942;9.104;2023-04-06T03:33:02;17.43;;;13.33;;
8104;SDS011;4095;48.942;9.104;2023-04-06T03:35:28;15.43;;;12.37;;
8104;SDS011;4095;48.942;9.104;2023-04-06T03:37:54;19.10;;;14.43;;
8104;SDS011;4095;48.942;9.104;2023-04-06T03:40:20;16.40;;;13.70;;
8104;SDS011;4095;48.942;9.104;2023-04-06T03:42:45;16.60;;;13.33;;
8104;SDS011;4095;48.942;9.104;2023-04-06T03:45:11;17.93;;;13.30;;
8104;SDS011;4095;48.942;9.104;2023-04-06T03:47:38;15.60;;;13.53;;
8104;SDS011;4095;48.942;9.104;2023-04-06T03:50:04;21.37;;;14.27;;
8104;SDS011;4095;48.942;9.104;2023-04-06T03:52:31;17.10;;;12.67;;
8104;SDS011;4095;48.942;9.104;2023-04-06T03:54:56;15.33;;;11.43;;
8104;SDS011;4095;48.942;9.104;2023-04-06T03:57:22;15.33;;;11.77;;
8104;SDS011;4095;48.942;9.104;2023-04-06T03:59:47;16.23;;;11.70;;
8104;SDS011;4095;48.942;9.104;2023-04-06T04:02:13;15.53;;;11.60;;
8104;SDS011;4095;48.942;9.104;2023-04-06T04:04:38;16.43;;;11.87;;
8104;SDS011;4095;48.942;9.104;2023-04-06T04:07:04;13.30;;;11.40;;
8104;SDS011;4095;48.942;9.104;2023-04-06T04:09:30;15.40;;;11.53;;
8104;SDS011;4095;48.942;9.104;2023-04-06T04:11:55;15.40;;;11.27;;
8104;SDS011;4095;48.942;9.104;2023-04-06T04:14:21;13.87;;;11.20;;
8104;SDS011;4095;48.942;9.104;2023-04-06T04:16:46;13.33;;;11.30;;
8104;SDS011;4095;48.942;9.104;2023-04-06T04:19:12;13.17;;;11.57;;
8104;SDS011;4095;48.942;9.104;2023-04-06T04:21:45;19.03;;;12.13;;
8104;SDS011;4095;48.942;9.104;2023-04-06T04:24:11;16.67;;;11.83;;
8104;SDS011;4095;48.942;9.104;2023-04-06T04:26:37;17.37;;;12.00;;
8104;SDS011;4095;48.942;9.104;2023-04-06T04:29:03;14.43;;;11.60;;
8104;SDS011;4095;48.942;9.104;2023-04-06T04:31:29;14.70;;;12.20;;
8104;SDS011;4095;48.942;9.104;2023-04-06T04:33:55;15.10;;;12.10;;
8104;SDS011;4095;48.942;9.104;2023-04-06T04:36:20;15.07;;;11.63;;
8104;SDS011;4095;48.942;9.104;2023-04-06T04:38:46;13.10;;;11.27;;
8104;SDS011;4095;48.942;9.104;2023-04-06T04:41:11;14.50;;;11.87;;
8104;SDS011;4095;48.942;9.104;2023-04-06T04:43:37;14.93;;;11.60;;
8104;SDS011;4095;48.942;9.104;2023-04-06T04:46:03;16.97;;;11.03;;
8104;SDS011;4095;48.942;9.104;2023-04-06T04:48:29;14.70;;;11.50;;
8104;SDS011;4095;48.942;9.104;2023-04-06T04:50:55;15.23;;;11.27;;
8104;SDS011;4095;48.942;9.104;2023-04-06T04:53:21;15.03;;;11.10;;
8104;SDS011;4095;48.942;9.104;2023-04-06T04:55:46;14.33;;;11.90;;
8104;SDS011;4095;48.942;9.104;2023-04-06T04:58:12;14.33;;;10.47;;
8104;SDS011;4095;48.942;9.104;2023-04-06T05:00:41;13.93;;;11.27;;
8104;SDS011;4095;48.942;9.104;2023-04-06T05:03:07;15.13;;;11.43;;
8104;SDS011;4095;48.942;9.104;2023-04-06T05:05:34;15.87;;;11.20;;
8104;SDS011;4095;48.942;9.104;2023-04-06T05:08:01;18.57;;;11.73;;
8104;SDS011;4095;48.942;9.104;2023-04-06T05:10:26;18.93;;;11.80;;
8104;SDS011;4095;48.942;9.104;2023-04-06T05:12:52;14.60;;;11.50;;
8104;SDS011;4095;48.942;9.104;2023-04-06T05:15:18;16.40;;;11.70;;
8104;SDS011;4095;48.942;9.104;2023-04-06T05:17:43;15.27;;;11.30;;
8104;SDS011;4095;48.942;9.104;2023-04-06T05:20:09;13.60;;;11.07;;
8104;SDS011;4095;48.942;9.104;2023-04-06T05:22:35;16.27;;;11.83;;
8104;SDS011;4095;48.942;9.104;2023-04-06T05:25:01;14.80;;;12.23;;
8104;SDS011;4095;48.942;9.104;2023-04-06T05:27:27;14.73;;;11.23;;
8104;SDS011;4095;48.942;9.104;2023-04-06T05:29:53;13.83;;;11.80;;
8104;SDS011;4095;48.942;9.104;2023-04-06T05:32:19;14.10;;;11.03;;
8104;SDS011;4095;48.942;9.104;2023-04-06T05:34:47;15.53;;;11.40;;
8104;SDS011;4095;48.942;9.104;2023-04-06T05:37:14;14.40;;;12.03;;
8104;SDS011;4095;48.942;9.104;2023-04-06T05:39:40;15.70;;;11.70;;
8104;SDS011;4095;48.942;9.104;2023-04-06T05:42:06;12.93;;;11.23;;
8104;SDS011;4095;48.942;9.104;2023-04-06T05:44:31;12.50;;;10.97;;
8104;SDS011;4095;48.942;9.104;2023-04-06T05:46:57;15.23;;;12.00;;
8104;SDS011;4095;48.942;9.104;2023-04-06T05:49:23;14.53;;;12.10;;
8104;SDS011;4095;48.942;9.104;2023-04-06T05:51:48;15.20;;;11.57;;
8104;SDS011;4095;48.942;9.104;2023-04-06T05:54:14;15.80;;;11.70;;
8104;SDS011;4095;48.942;9.104;2023-04-06T05:56:40;16.10;;;12.20;;
8104;SDS011;4095;48.942;9.104;2023-04-06T05:59:06;17.83;;;11.97;;
8104;SDS011;4095;48.942;9.104;2023-04-06T06:01:32;16.80;;;12.97;;
8104;SDS011;4095;48.942;9.104;2023-04-06T06:03:59;15.27;;;12.53;;
8104;SDS011;4095;48.942;9.104;2023-04-06T06:06:25;16.63;;;13.20;;
8104;SDS011;4095;48.942;9.104;2023-04-06T06:08:53;18.30;;;13.33;;
8104;SDS011;4095;48.942;9.104;2023-04-06T06:11:18;18.03;;;13.93;;
8104;SDS011;4095;48.942;9.104;2023-04-06T06:13:44;16.80;;;14.00;;
8104;SDS011;4095;48.942;9.104;2023-04-06T06:16:10;17.63;;;13.50;;
8104;SDS011;4095;48.942;9.104;2023-04-06T06:18:35;18.77;;;14.37;;
8104;SDS011;4095;48.942;9.104;2023-04-06T06:21:01;18.70;;;14.30;;
8104;SDS011;4095;48.942;9.104;2023-04-06T06:23:27;18.50;;;14.70;;
8104;SDS011;4095;48.942;9.104;2023-04-06T06:25:53;19.60;;;14.43;;
8104;SDS011;4095;48.942;9.104;2023-04-06T06:28:18;16.03;;;13.47;;
8104;SDS011;4095;48.942;9.104;2023-04-06T06:30:44;18.30;;;13.37;;
8104;SDS011;4095;48.942;9.104;2023-04-06T06:33:10;17.27;;;13.20;;
8104;SDS011;4095;48.942;9.104;2023-04-06T06:35:35;17.33;;;13.20;;
8104;SDS011;4095;48.942;9.104;2023-04-06T06:38:01;19.10;;;13.47;;
8104;SDS011;4095;48.942;9.104;2023-04-06T06:40:27;15.20;;;12.10;;
8104;SDS011;4095;48.942;9.104;2023-04-06T06:42:52;22.27;;;13.27;;
8104;SDS011;4095;48.942;9.104;2023-04-06T06:45:18;16.60;;;12.87;;
8104;SDS011;4095;48.942;9.104;2023-04-06T06:47:45;15.37;;;12.07;;
8104;SDS011;4095;48.942;9.104;2023-04-06T06:50:11;21.80;;;12.93;;
8104;SDS011;4095;48.942;9.104;2023-04-06T06:52:36;17.70;;;12.50;;
8104;SDS011;4095;48.942;9.104;2023-04-06T06:55:02;15.83;;;12.40;;
8104;SDS011;4095;48.942;9.104;2023-04-06T06:57:28;17.00;;;12.37;;
8104;SDS011;4095;48.942;9.104;2023-04-06T06:59:53;18.07;;;12.27;;
8104;SDS011;4095;48.942;9.104;2023-04-06T07:02:19;16.87;;;13.57;;
8104;SDS011;4095;48.942;9.104;2023-04-06T07:04:47;16.60;;;12.70;;
8104;SDS011;4095;48.942;9.104;2023-04-06T07:07:13;18.67;;;12.77;;
8104;SDS011;4095;48.942;9.104;2023-04-06T07:09:39;20.53;;;13.30;;
8104;SDS011;4095;48.942;9.104;2023-04-06T07:12:05;16.63;;;12.17;;
8104;SDS011;4095;48.942;9.104;2023-04-06T07:14:31;18.50;;;12.40;;
8104;SDS011;4095;48.942;9.104;2023-04-06T07:16:56;12.60;;;11.10;;
8104;SDS011;4095;48.942;9.104;2023-04-06T07:19:22;16.37;;;11.87;;
8104;SDS011;4095;48.942;9.104;2023-04-06T07:21:48;17.30;;;13.77;;
8104;SDS011;4095;48.942;9.104;2023-04-06T07:24:14;16.70;;;12.50;;
8104;SDS011;4095;48.942;9.104;2023-04-06T07:26:40;17.83;;;13.57;;
8104;SDS011;4095;48.942;9.104;2023-04-06T07:29:06;17.23;;;13.80;;
8104;SDS011;4095;48.942;9.104;2023-04-06T07:31:32;14.13;;;12.20;;
8104;SDS011;4095;48.942;9.104;2023-04-06T07:33:58;14.33;;;11.53;;
8104;SDS011;4095;48.942;9.104;2023-04-06T07:36:24;17.17;;;11.13;;
8104;SDS011;4095;48.942;9.104;2023-04-06T07:38:49;16.83;;;11.87;;
8104;SDS011;4095;48.942;9.104;2023-04-06T07:41:15;15.90;;;11.57;;
8104;SDS011;4095;48.942;9.104;2023-04-06T07:43:40;16.00;;;11.97;;
8104;SDS011;4095;48.942;9.104;2023-04-06T07:46:06;16.50;;;11.63;;
8104;SDS011;4095;48.942;9.104;2023-04-06T07:48:32;18.03;;;11.87;;
8104;SDS011;4095;48.942;9.104;2023-04-06T07:51:01;16.03;;;11.43;;
8104;SDS011;4095;48.942;9.104;2023-04-06T07:53:28;13.13;;;11.67;;
8104;SDS011;4095;48.942;9.104;2023-04-06T07:55:53;14.53;;;11.70;;
8104;SDS011;4095;48.942;9.104;2023-04-06T07:58:20;16.53;;;11.33;;
8104;SDS011;4095;48.942;9.104;2023-04-06T08:00:46;12.27;;;11.00;;
8104;SDS011;4095;48.942;9.104;2023-04-06T08:03:12;13.03;;;10.90;;
8104;SDS011;4095;48.942;9.104;2023-04-06T08:05:37;16.00;;;11.13;;
8104;SDS011;4095;48.942;9.104;2023-04-06T08:08:03;13.60;;;10.43;;
8104;SDS011;4095;48.942;9.104;2023-04-06T08:10:29;11.80;;;10.27;;
8104;SDS011;4095;48.942;9.104;2023-04-06T08:12:54;12.37;;;10.30;;
8104;SDS011;4095;48.942;9.104;2023-04-06T08:15:20;17.77;;;10.80;;
8104;SDS011;4095;48.942;9.104;2023-04-06T08:17:45;12.47;;;10.00;;
8104;SDS011;4095;48.942;9.104;2023-04-06T08:20:11;14.10;;;10.43;;
8104;SDS011;4095;48.942;9.104;2023-04-06T08:22:37;13.60;;;9.67;;
8104;SDS011;4095;48.942;9.104;2023-04-06T08:25:03;13.73;;;9.77;;
8104;SDS011;4095;48.942;9.104;2023-04-06T08:27:28;11.93;;;9.20;;
8104;SDS011;4095;48.942;9.104;2023-04-06T08:29:54;12.23;;;10.23;;
8104;SDS011;4095;48.942;9.104;2023-04-06T08:32:20;10.37;;;9.30;;
8104;SDS011;4095;48.942;9.104;2023-04-06T08:34:46;13.83;;;9.40;;
8104;SDS011;4095;48.942;9.104;2023-04-06T08:37:11;11.23;;;8.77;;
8104;SDS011;4095;48.942;9.104;2023-04-06T08:39:37;10.10;;;8.90;;
8104;SDS011;4095;48.942;9.104;2023-04-06T08:42:03;11.47;;;8.70;;
8104;SDS011;4095;48.942;9.104;2023-04-06T08:44:29;13.57;;;9.13;;
8104;SDS011;4095;48.942;9.104;2023-04-06T08:46:56;12.37;;;9.27;;
8104;SDS011;4095;48.942;9.104;2023-04-06T08:49:23;11.50;;;9.13;;
8104;SDS011;4095;48.942;9.104;2023-04-06T08:51:49;12.60;;;8.87;;
8104;SDS011;4095;48.942;9.104;2023-04-06T08:54:15;9.30;;;8.30;;
8104;SDS011;4095;48.942;9.104;2023-04-06T08:56:41;10.00;;;8.70;;
8104;SDS011;4095;48.942;9.104;2023-04-06T08:59:08;9.60;;;8.20;;
8104;SDS011;4095;48.942;9.104;2023-04-06T09:01:36;8.60;;;7.70;;
8104;SDS011;4095;48.942;9.104;2023-04-06T09:04:06;9.00;;;7.90;;
8104;SDS011;4095;48.942;9.104;2023-04-06T09:06:35;9.90;;;8.17;;
8104;SDS011;4095;48.942;9.104;2023-04-06T09:09:01;12.77;;;8.53;;
8104;SDS011;4095;48.942;9.104;2023-04-06T09:11:27;10.80;;;7.77;;
8104;SDS011;4095;48.942;9.104;2023-04-06T09:13:54;11.07;;;8.47;;
8104;SDS011;4095;48.942;9.104;2023-04-06T09:16:20;9.07;;;8.13;;
8104;SDS011;4095;48.942;9.104;2023-04-06T09:18:48;9.93;;;8.00;;
8104;SDS011;4095;48.942;9.104;2023-04-06T09:21:16;9.33;;;7.50;;
8104;SDS011;4095;48.942;9.104;2023-04-06T09:23:43;7.70;;;6.83;;
8104;SDS011;4095;48.942;9.104;2023-04-06T09:26:09;9.23;;;7.03;;
8104;SDS011;4095;48.942;9.104;2023-04-06T09:28:53;21.13;;;8.10;;
8104;SDS011;4095;48.942;9.104;2023-04-06T09:33:49;9.97;;;7.30;;
8104;SDS011;4095;48.942;9.104;2023-04-06T09:36:17;9.60;;;7.43;;
8104;SDS011;4095;48.942;9.104;2023-04-06T09:38:55;9.10;;;7.70;;
8104;SDS011;4095;48.942;9.104;2023-04-06T09:41:29;8.97;;;7.13;;
8104;SDS011;4095;48.942;9.104;2023-04-06T09:46:32;7.00;;;6.30;;
8104;SDS011;4095;48.942;9.104;2023-04-06T09:49:04;7.67;;;6.87;;
8104;SDS011;4095;48.942;9.104;2023-04-06T09:51:32;7.93;;;6.37;;
8104;SDS011;4095;48.942;9.104;2023-04-06T09:54:18;9.57;;;6.73;;
8104;SDS011;4095;48.942;9.104;2023-04-06T09:56:48;6.97;;;6.27;;
8104;SDS011;4095;48.942;9.104;2023-04-06T10:02:05;8.57;;;5.67;;
8104;SDS011;4095;48.942;9.104;2023-04-06T10:04:39;7.67;;;6.60;;
8104;SDS011;4095;48.942;9.104;2023-04-06T10:07:14;7.43;;;6.47;;
8104;SDS011;4095;48.942;9.104;2023-04-06T10:09:42;8.17;;;6.77;;
8104;SDS011;4095;48.942;9.104;2023-04-06T10:12:10;9.57;;;7.30;;
8104;SDS011;4095;48.942;9.104;2023-04-06T10:14:37;8.10;;;7.30;;
8104;SDS011;4095;48.942;9.104;2023-04-06T10:17:04;8.63;;;7.40;;
8104;SDS011;4095;48.942;9.104;2023-04-06T10:19:52;8.27;;;7.47;;
8104;SDS011;4095;48.942;9.104;2023-04-06T10:22:24;9.17;;;7.27;;
8104;SDS011;4095;48.942;9.104;2023-04-06T10:24:57;8.63;;;7.33;;
8104;SDS011;4095;48.942;9.104;2023-04-06T10:27:29;8.77;;;7.83;;
8104;SDS011;4095;48.942;9.104;2023-04-06T10:30:00;8.77;;;7.23;;
8104;SDS011;4095;48.942;9.104;2023-04-06T10:35:07;8.73;;;7.80;;
8104;SDS011;4095;48.942;9.104;2023-04-06T10:40:27;9.57;;;8.57;;
8104;SDS011;4095;48.942;9.104;2023-04-06T10:42:53;8.30;;;7.47;;
8104;SDS011;4095;48.942;9.104;2023-04-06T10:45:24;8.32;;;7.50;;
8104;SDS011;4095;48.942;9.104;2023-04-06T10:47:54;9.48;;;7.95;;
8104;SDS011;4095;48.942;9.104;2023-04-06T10:50:20;8.27;;;7.53;;
8104;SDS011;4095;48.942;9.104;2023-04-06T10:52:47;7.78;;;6.97;;
8104;SDS011;4095;48.942;9.104;2023-04-06T10:55:22;8.35;;;7.53;;
8104;SDS011;4095;48.942;9.104;2023-04-06T10:57:49;8.80;;;7.50;;
8104;SDS011;4095;48.942;9.104;2023-04-06T11:00:15;8.23;;;7.28;;
8104;SDS011;4095;48.942;9.104;2023-04-06T11:02:41;8.88;;;7.80;;
8104;SDS011;4095;48.942;9.104;2023-04-06T11:05:06;8.63;;;7.72;;
8104;SDS011;4095;48.942;9.104;2023-04-06T11:07:32;8.18;;;7.40;;
8104;SDS011;4095;48.942;9.104;2023-04-06T11:09:58;9.75;;;7.63;;
8104;SDS011;4095;48.942;9.104;2023-04-06T11:12:24;9.48;;;7.55;;
8104;SDS011;4095;48.942;9.104;2023-04-06T11:14:58;8.93;;;8.13;;
8104;SDS011;4095;48.942;9.104;2023-04-06T11:17:31;6.68;;;6.03;;
8104;SDS011;4095;48.942;9.104;2023-04-06T11:19:58;7.25;;;6.55;;
8104;SDS011;4095;48.942;9.104;2023-04-06T11:22:24;8.15;;;7.35;;
8104;SDS011;4095;48.942;9.104;2023-04-06T11:24:50;7.68;;;6.80;;
8104;SDS011;4095;48.942;9.104;2023-04-06T11:27:17;7.38;;;6.68;;
8104;SDS011;4095;48.942;9.104;2023-04-06T11:29:46;7.90;;;7.13;;
8104;SDS011;4095;48.942;9.104;2023-04-06T11:32:19;7.13;;;6.50;;
8104;SDS011;4095;48.942;9.104;2023-04-06T11:34:49;8.45;;;7.43;;
8104;SDS011;4095;48.942;9.104;2023-04-06T11:37:15;7.72;;;7.00;;
8104;SDS011;4095;48.942;9.104;2023-04-06T11:39:43;7.93;;;7.13;;
8104;SDS011;4095;48.942;9.104;2023-04-06T11:42:20;7.53;;;6.88;;
8104;SDS011;4095;48.942;9.104;2023-04-06T11:44:49;8.95;;;7.15;;
8104;SDS011;4095;48.942;9.104;2023-04-06T11:47:16;7.88;;;6.57;;
8104;SDS011;4095;48.942;9.104;2023-04-06T11:49:42;8.25;;;6.50;;
8104;SDS011;4095;48.942;9.104;2023-04-06T11:52:19;7.70;;;6.63;;
8104;SDS011;4095;48.942;9.104;2023-04-06T11:54:48;7.25;;;6.45;;
8104;SDS011;4095;48.942;9.104;2023-04-06T11:57:15;7.35;;;6.65;;
8104;SDS011;4095;48.942;9.104;2023-04-06T11:59:42;7.53;;;6.82;;
8104;SDS011;4095;48.942;9.104;2023-04-06T12:02:08;8.35;;;7.65;;
8104;SDS011;4095;48.942;9.104;2023-04-06T12:04:34;7.43;;;6.68;;
8104;SDS011;4095;48.942;9.104;2023-04-06T12:07:00;7.30;;;6.60;;
8104;SDS011;4095;48.942;9.104;2023-04-06T12:09:26;8.35;;;7.60;;
8104;SDS011;4095;48.942;9.104;2023-04-06T12:11:52;7.93;;;7.13;;
8104;SDS011;4095;48.942;9.104;2023-04-06T12:14:18;9.00;;;8.00;;
8104;SDS011;4095;48.942;9.104;2023-04-06T12:16:44;8.25;;;7.45;;
8104;SDS011;4095;48.942;9.104;2023-04-06T12:19:10;8.20;;;7.50;;
8104;SDS011;4095;48.942;9.104;2023-04-06T12:21:36;8.18;;;7.38;;
8104;SDS011;4095;48.942;9.104;2023-04-06T12:24:02;7.95;;;7.25;;
8104;SDS011;4095;48.942;9.104;2023-04-06T12:26:29;8.52;;;7.68;;
8104;SDS011;4095;48.942;9.104;2023-04-06T12:28:55;8.52;;;6.90;;
8104;SDS011;4095;48.942;9.104;2023-04-06T12:31:21;8.60;;;7.70;;
8104;SDS011;4095;48.942;9.104;2023-04-06T12:33:51;8.40;;;7.53;;
8104;SDS011;4095;48.942;9.104;2023-04-06T12:36:18;8.55;;;7.75;;
8104;SDS011;4095;48.942;9.104;2023-04-06T12:38:46;9.43;;;7.68;;
8104;SDS011;4095;48.942;9.104;2023-04-06T12:41:13;8.07;;;7.03;;
8104;SDS011;4095;48.942;9.104;2023-04-06T12:43:40;8.52;;;7.53;;
8104;SDS011;4095;48.942;9.104;2023-04-06T12:46:06;7.70;;;7.00;;
8104;SDS011;4095;48.942;9.104;2023-04-06T12:48:32;8.60;;;6.63;;
8104;SDS011;4095;48.942;9.104;2023-04-06T12:50:58;7.80;;;6.63;;
8104;SDS011;4095;48.942;9.104;2023-04-06T12:53:24;7.70;;;6.97;;
8104;SDS011;4095;48.942;9.104;2023-04-06T12:55:50;7.75;;;6.95;;
8104;SDS011;4095;48.942;9.104;2023-04-06T12:58:16;8.75;;;7.20;;
8104;SDS011;4095;48.942;9.104;2023-04-06T13:00:42;8.70;;;7.47;;
8104;SDS011;4095;48.942;9.104;2023-04-06T13:03:08;7.72;;;6.93;;
8104;SDS011;4095;48.942;9.104;2023-04-06T13:05:34;8.02;;;6.57;;
8104;SDS011;4095;48.942;9.104;2023-04-06T13:08:00;7.32;;;6.63;;
8104;SDS011;4095;48.942;9.104;2023-04-06T13:10:25;8.10;;;7.20;;
8104;SDS011;4095;48.942;9.104;2023-04-06T13:12:51;9.98;;;7.30;;
8104;SDS011;4095;48.942;9.104;2023-04-06T13:15:17;9.38;;;8.38;;
8104;SDS011;4095;48.942;9.104;2023-04-06T13:17:43;8.82;;;7.93;;
8104;SDS011;4095;48.942;9.104;2023-04-06T13:20:08;9.18;;;7.50;;
8104;SDS011;4095;48.942;9.104;2023-04-06T13:22:34;8.02;;;6.95;;
8104;SDS011;4095;48.942;9.104;2023-04-06T13:25:00;8.15;;;7.35;;
8104;SDS011;4095;48.942;9.104;2023-04-06T13:27:26;8.90;;;8.00;;
8104;SDS011;4095;48.942;9.104;2023-04-06T13:29:52;8.30;;;7.50;;
8104;SDS011;4095;48.942;9.104;2023-04-06T13:32:18;7.97;;;6.78;;
8104;SDS011;4095;48.942;9.104;2023-04-06T13:34:44;8.07;;;7.25;;
8104;SDS011;4095;48.942;9.104;2023-04-06T13:37:13;8.73;;;7.27;;
8104;SDS011;4095;48.942;9.104;2023-04-06T13:39:40;9.47;;;7.13;;
8104;SDS011;4095;48.942;9.104;2023-04-06T13:42:05;9.50;;;8.20;;
8104;SDS011;4095;48.942;9.104;2023-04-06T13:44:31;9.07;;;7.90;;
8104;SDS011;4095;48.942;9.104;2023-04-06T13:46:57;7.93;;;7.13;;
8104;SDS011;4095;48.942;9.104;2023-04-06T13:49:23;7.63;;;6.93;;
8104;SDS011;4095;48.942;9.104;2023-04-06T13:51:49;9.00;;;7.07;;
8104;SDS011;4095;48.942;9.104;2023-04-06T13:54:14;9.47;;;7.13;;
8104;SDS011;4095;48.942;9.104;2023-04-06T13:56:40;9.27;;;6.77;;
8104;SDS011;4095;48.942;9.104;2023-04-06T13:59:05;8.73;;;6.70;;
8104;SDS011;4095;48.942;9.104;2023-04-06T14:01:31;8.33;;;7.07;;
8104;SDS011;4095;48.942;9.104;2023-04-06T14:03:56;8.00;;;7.20;;
8104;SDS011;4095;48.942;9.104;2023-04-06T14:06:22;9.80;;;8.10;;
8104;SDS011;4095;48.942;9.104;2023-04-06T14:08:48;9.27;;;7.60;;
8104;SDS011;4095;48.942;9.104;2023-04-06T14:11:13;7.83;;;6.90;;
8104;SDS011;4095;48.942;9.104;2023-04-06T14:13:39;13.43;;;10.83;;
8104;SDS011;4095;48.942;9.104;2023-04-06T14:16:05;8.03;;;7.23;;
8104;SDS011;4095;48.942;9.104;2023-04-06T14:18:31;8.80;;;7.23;;
8104;SDS011;4095;48.942;9.104;2023-04-06T14:20:59;8.70;;;7.80;;
8104;SDS011;4095;48.942;9.104;2023-04-06T14:23:25;9.40;;;7.53;;
8104;SDS011;4095;48.942;9.104;2023-04-06T14:26:01;7.77;;;6.97;;
8104;SDS011;4095;48.942;9.104;2023-04-06T14:28:32;11.17;;;6.87;;
8104;SDS011;4095;48.942;9.104;2023-04-06T14:30:59;7.87;;;7.13;;
8104;SDS011;4095;48.942;9.104;2023-04-06T14:33:26;8.43;;;7.10;;
8104;SDS011;4095;48.942;9.104;2023-04-06T14:35:52;8.23;;;7.20;;
8104;SDS011;4095;48.942;9.104;2023-04-06T14:38:18;8.87;;;7.97;;
8104;SDS011;4095;48.942;9.104;2023-04-06T14:40:43;8.70;;;7.37;;
8104;SDS011;4095;48.942;9.104;2023-04-06T14:43:09;8.97;;;7.03;;
8104;SDS011;4095;48.942;9.104;2023-04-06T14:45:35;9.77;;;7.23;;
8104;SDS011;4095;48.942;9.104;2023-04-06T14:48:01;7.80;;;6.90;;
8104;SDS011;4095;48.942;9.104;2023-04-06T14:50:27;7.63;;;6.67;;
8104;SDS011;4095;48.942;9.104;2023-04-06T14:52:53;7.60;;;6.90;;
8104;SDS011;4095;48.942;9.104;2023-04-06T14:55:18;9.33;;;7.50;;
8104;SDS011;4095;48.942;9.104;2023-04-06T14:57:44;8.30;;;6.73;;
8104;SDS011;4095;48.942;9.104;2023-04-06T15:00:10;7.63;;;6.83;;
8104;SDS011;4095;48.942;9.104;2023-04-06T15:02:36;7.87;;;7.07;;
8104;SDS011;4095;48.942;9.104;2023-04-06T15:05:02;10.43;;;6.90;;
8104;SDS011;4095;48.942;9.104;2023-04-06T15:07:30;10.40;;;7.47;;